sensor_id;sensor_type;location;lat;lon;timestamp;temperature;humidity
69546;SHT31;56766;52.260;20.746;2023-05-10T00:01:39;7.49;58.11
69546;SHT31;56766;52.260;20.746;2023-05-10T00:04:04;7.49;58.22
69546;SHT31;56766;52.260;20.746;2023-05-10T00:06:30;7.50;58.05
69546;SHT31;56766;52.260;20.746;2023-05-10T00:08:57;7.50;58.08
69546;SHT31;56766;52.260;20.746;2023-05-10T00:11:23;7.51;58.06
69546;SHT31;56766;52.260;20.746;2023-05-10T00:13:49;7.50;58.04
69546;SHT31;56766;52.260;20.746;2023-05-10T00:16:15;7.52;57.92
69546;SHT31;56766;52.260;20.746;2023-05-10T00:18:41;7.53;57.81
69546;SHT31;56766;52.260;20.746;2023-05-10T00:21:07;7.55;57.74
69546;SHT31;56766;52.260;20.746;2023-05-10T00:23:33;7.57;57.69
69546;SHT31;56766;52.260;20.746;2023-05-10T00:25:58;7.59;57.53
69546;SHT31;56766;52.260;20.746;2023-05-10T00:28:24;7.61;57.50
69546;SHT31;56766;52.260;20.746;2023-05-10T00:30:50;7.62;57.35
69546;SHT31;56766;52.260;20.746;2023-05-10T00:33:16;7.64;57.21
69546;SHT31;56766;52.260;20.746;2023-05-10T00:35:42;7.65;57.20
69546;SHT31;56766;52.260;20.746;2023-05-10T00:38:08;7.65;57.14
69546;SHT31;56766;52.260;20.746;2023-05-10T00:40:35;7.65;57.02
69546;SHT31;56766;52.260;20.746;2023-05-10T00:43:03;7.65;57.00
69546;SHT31;56766;52.260;20.746;2023-05-10T00:45:32;7.64;57.01
69546;SHT31;56766;52.260;20.746;2023-05-10T00:48:02;7.64;57.01
69546;SHT31;56766;52.260;20.746;2023-05-10T00:50:30;7.63;57.02
69546;SHT31;56766;52.260;20.746;2023-05-10T00:52:59;7.62;57.03
69546;SHT31;56766;52.260;20.746;2023-05-10T00:55:25;7.58;57.08
69546;SHT31;56766;52.260;20.746;2023-05-10T00:57:53;7.56;57.09
69546;SHT31;56766;52.260;20.746;2023-05-10T01:00:20;7.55;57.25
69546;SHT31;56766;52.260;20.746;2023-05-10T01:02:46;7.52;57.31
69546;SHT31;56766;52.260;20.746;2023-05-10T01:05:13;7.50;57.24
69546;SHT31;56766;52.260;20.746;2023-05-10T01:07:39;7.48;57.29
69546;SHT31;56766;52.260;20.746;2023-05-10T01:10:07;7.47;57.27
69546;SHT31;56766;52.260;20.746;2023-05-10T01:12:38;7.46;57.29
69546;SHT31;56766;52.260;20.746;2023-05-10T01:15:11;7.43;57.27
69546;SHT31;56766;52.260;20.746;2023-05-10T01:17:40;7.43;57.30
69546;SHT31;56766;52.260;20.746;2023-05-10T01:20:11;7.39;57.26
69546;SHT31;56766;52.260;20.746;2023-05-10T01:23:03;7.38;57.28
69546;SHT31;56766;52.260;20.746;2023-05-10T01:32:35;7.27;57.48
69546;SHT31;56766;52.260;20.746;2023-05-10T01:35:40;7.25;57.43
69546;SHT31;56766;52.260;20.746;2023-05-10T01:38:20;7.24;57.44
69546;SHT31;56766;52.260;20.746;2023-05-10T01:41:12;7.20;57.56
69546;SHT31;56766;52.260;20.746;2023-05-10T01:43:53;7.17;57.58
69546;SHT31;56766;52.260;20.746;2023-05-10T01:46:36;7.15;57.60
69546;SHT31;56766;52.260;20.746;2023-05-10T01:49:10;7.12;57.64
69546;SHT31;56766;52.260;20.746;2023-05-10T01:51:47;7.11;57.67
69546;SHT31;56766;52.260;20.746;2023-05-10T01:54:19;7.09;57.77
69546;SHT31;56766;52.260;20.746;2023-05-10T01:56:52;7.06;57.81
69546;SHT31;56766;52.260;20.746;2023-05-10T01:59:30;7.01;57.99
69546;SHT31;56766;52.260;20.746;2023-05-10T02:02:08;6.96;58.08
69546;SHT31;56766;52.260;20.746;2023-05-10T02:04:39;6.92;58.13
69546;SHT31;56766;52.260;20.746;2023-05-10T02:07:08;6.89;58.23
69546;SHT31;56766;52.260;20.746;2023-05-10T02:09:37;6.85;58.48
69546;SHT31;56766;52.260;20.746;2023-05-10T02:12:05;6.79;58.51
69546;SHT31;56766;52.260;20.746;2023-05-10T02:14:36;6.76;58.62
69546;SHT31;56766;52.260;20.746;2023-05-10T02:17:06;6.71;58.81
69546;SHT31;56766;52.260;20.746;2023-05-10T02:19:37;6.67;58.93
69546;SHT31;56766;52.260;20.746;2023-05-10T02:22:08;6.62;59.17
69546;SHT31;56766;52.260;20.746;2023-05-10T02:24:37;6.60;59.13
69546;SHT31;56766;52.260;20.746;2023-05-10T02:27:06;6.58;59.23
69546;SHT31;56766;52.260;20.746;2023-05-10T02:29:36;6.53;59.42
69546;SHT31;56766;52.260;20.746;2023-05-10T02:32:05;6.50;59.38
69546;SHT31;56766;52.260;20.746;2023-05-10T02:34:33;6.47;59.42
69546;SHT31;56766;52.260;20.746;2023-05-10T02:36:59;6.47;59.43
69546;SHT31;56766;52.260;20.746;2023-05-10T02:39:30;6.47;59.38
69546;SHT31;56766;52.260;20.746;2023-05-10T02:41:58;6.46;59.55
69546;SHT31;56766;52.260;20.746;2023-05-10T02:44:28;6.45;59.53
69546;SHT31;56766;52.260;20.746;2023-05-10T02:46:57;6.44;59.58
69546;SHT31;56766;52.260;20.746;2023-05-10T02:49:24;6.43;59.64
69546;SHT31;56766;52.260;20.746;2023-05-10T02:51:58;6.41;59.73
69546;SHT31;56766;52.260;20.746;2023-05-10T02:54:32;6.39;59.76
69546;SHT31;56766;52.260;20.746;2023-05-10T02:57:04;6.37;59.91
69546;SHT31;56766;52.260;20.746;2023-05-10T02:59:32;6.35;59.98
69546;SHT31;56766;52.260;20.746;2023-05-10T03:01:59;6.34;59.99
69546;SHT31;56766;52.260;20.746;2023-05-10T03:04:26;6.33;60.07
69546;SHT31;56766;52.260;20.746;2023-05-10T03:06:52;6.34;60.12
69546;SHT31;56766;52.260;20.746;2023-05-10T03:09:18;6.35;60.13
69546;SHT31;56766;52.260;20.746;2023-05-10T03:14:53;6.39;60.27
69546;SHT31;56766;52.260;20.746;2023-05-10T03:20:38;6.44;60.26
69546;SHT31;56766;52.260;20.746;2023-05-10T03:23:51;6.48;60.30
69546;SHT31;56766;52.260;20.746;2023-05-10T03:26:27;6.49;60.51
69546;SHT31;56766;52.260;20.746;2023-05-10T03:28:55;6.52;60.57
69546;SHT31;56766;52.260;20.746;2023-05-10T03:31:22;6.55;60.55
69546;SHT31;56766;52.260;20.746;2023-05-10T03:33:50;6.57;60.45
69546;SHT31;56766;52.260;20.746;2023-05-10T03:36:19;6.62;60.50
69546;SHT31;56766;52.260;20.746;2023-05-10T03:38:45;6.64;60.44
69546;SHT31;56766;52.260;20.746;2023-05-10T03:41:11;6.69;60.32
69546;SHT31;56766;52.260;20.746;2023-05-10T03:43:37;6.75;60.28
69546;SHT31;56766;52.260;20.746;2023-05-10T03:46:04;6.82;60.18
69546;SHT31;56766;52.260;20.746;2023-05-10T03:48:32;6.89;60.10
69546;SHT31;56766;52.260;20.746;2023-05-10T03:50:58;6.94;60.09
69546;SHT31;56766;52.260;20.746;2023-05-10T03:53:25;7.00;60.03
69546;SHT31;56766;52.260;20.746;2023-05-10T03:55:50;7.07;60.05
69546;SHT31;56766;52.260;20.746;2023-05-10T03:58:16;7.11;59.89
69546;SHT31;56766;52.260;20.746;2023-05-10T04:00:42;7.17;59.97
69546;SHT31;56766;52.260;20.746;2023-05-10T04:03:11;7.24;59.72
69546;SHT31;56766;52.260;20.746;2023-05-10T04:05:38;7.31;59.79
69546;SHT31;56766;52.260;20.746;2023-05-10T04:08:04;7.39;59.77
69546;SHT31;56766;52.260;20.746;2023-05-10T04:10:30;7.44;59.48
69546;SHT31;56766;52.260;20.746;2023-05-10T04:12:57;7.54;59.31
69546;SHT31;56766;52.260;20.746;2023-05-10T04:15:23;7.64;59.08
69546;SHT31;56766;52.260;20.746;2023-05-10T04:17:49;7.73;59.03
69546;SHT31;56766;52.260;20.746;2023-05-10T04:20:16;7.80;59.10
69546;SHT31;56766;52.260;20.746;2023-05-10T04:22:42;7.84;59.09
69546;SHT31;56766;52.260;20.746;2023-05-10T04:25:08;7.91;58.82
69546;SHT31;56766;52.260;20.746;2023-05-10T04:27:34;7.99;58.66
69546;SHT31;56766;52.260;20.746;2023-05-10T04:30:01;8.09;58.41
69546;SHT31;56766;52.260;20.746;2023-05-10T04:32:27;8.20;58.43
69546;SHT31;56766;52.260;20.746;2023-05-10T04:34:53;8.35;58.21
69546;SHT31;56766;52.260;20.746;2023-05-10T04:37:19;8.60;58.10
69546;SHT31;56766;52.260;20.746;2023-05-10T04:39:47;9.00;57.53
69546;SHT31;56766;52.260;20.746;2023-05-10T04:42:13;9.44;56.67
69546;SHT31;56766;52.260;20.746;2023-05-10T04:44:41;9.94;55.85
69546;SHT31;56766;52.260;20.746;2023-05-10T04:47:07;10.43;54.92
69546;SHT31;56766;52.260;20.746;2023-05-10T04:49:32;10.81;53.99
69546;SHT31;56766;52.260;20.746;2023-05-10T04:51:58;11.18;53.77
69546;SHT31;56766;52.260;20.746;2023-05-10T04:54:24;11.58;52.96
69546;SHT31;56766;52.260;20.746;2023-05-10T04:56:50;11.94;52.39
69546;SHT31;56766;52.260;20.746;2023-05-10T04:59:16;12.23;51.94
69546;SHT31;56766;52.260;20.746;2023-05-10T05:01:42;12.45;50.99
69546;SHT31;56766;52.260;20.746;2023-05-10T05:04:08;12.66;50.38
69546;SHT31;56766;52.260;20.746;2023-05-10T05:06:34;12.88;49.96
69546;SHT31;56766;52.260;20.746;2023-05-10T05:09:00;13.08;49.38
69546;SHT31;56766;52.260;20.746;2023-05-10T05:11:26;13.19;48.96
69546;SHT31;56766;52.260;20.746;2023-05-10T05:13:52;13.18;48.72
69546;SHT31;56766;52.260;20.746;2023-05-10T05:16:19;13.14;48.86
69546;SHT31;56766;52.260;20.746;2023-05-10T05:18:44;13.13;48.86
69546;SHT31;56766;52.260;20.746;2023-05-10T05:21:18;13.13;48.29
69546;SHT31;56766;52.260;20.746;2023-05-10T05:23:45;13.05;47.76
69546;SHT31;56766;52.260;20.746;2023-05-10T05:26:12;12.99;48.19
69546;SHT31;56766;52.260;20.746;2023-05-10T05:28:38;12.98;48.03
69546;SHT31;56766;52.260;20.746;2023-05-10T05:31:04;12.98;48.47
69546;SHT31;56766;52.260;20.746;2023-05-10T05:33:31;13.03;48.30
69546;SHT31;56766;52.260;20.746;2023-05-10T05:36:00;13.05;48.45
69546;SHT31;56766;52.260;20.746;2023-05-10T05:38:27;13.09;48.35
69546;SHT31;56766;52.260;20.746;2023-05-10T05:40:53;13.11;47.99
69546;SHT31;56766;52.260;20.746;2023-05-10T05:43:18;13.13;48.08
69546;SHT31;56766;52.260;20.746;2023-05-10T05:45:45;13.20;48.06
69546;SHT31;56766;52.260;20.746;2023-05-10T05:48:11;13.27;48.07
69546;SHT31;56766;52.260;20.746;2023-05-10T05:50:37;13.38;47.80
69546;SHT31;56766;52.260;20.746;2023-05-10T05:53:03;13.45;47.49
69546;SHT31;56766;52.260;20.746;2023-05-10T05:55:28;13.51;47.98
69546;SHT31;56766;52.260;20.746;2023-05-10T05:57:57;13.61;48.17
69546;SHT31;56766;52.260;20.746;2023-05-10T06:00:24;13.71;48.00
69546;SHT31;56766;52.260;20.746;2023-05-10T06:02:50;13.78;48.04
69546;SHT31;56766;52.260;20.746;2023-05-10T06:05:15;13.84;47.93
69546;SHT31;56766;52.260;20.746;2023-05-10T06:07:41;13.89;47.61
69546;SHT31;56766;52.260;20.746;2023-05-10T06:10:08;13.96;47.51
69546;SHT31;56766;52.260;20.746;2023-05-10T06:12:35;14.00;46.66
69546;SHT31;56766;52.260;20.746;2023-05-10T06:15:02;14.00;46.51
69546;SHT31;56766;52.260;20.746;2023-05-10T06:17:28;14.03;46.90
69546;SHT31;56766;52.260;20.746;2023-05-10T06:19:55;14.09;47.10
69546;SHT31;56766;52.260;20.746;2023-05-10T06:22:21;14.14;46.93
69546;SHT31;56766;52.260;20.746;2023-05-10T06:24:49;14.21;47.08
69546;SHT31;56766;52.260;20.746;2023-05-10T06:27:15;14.26;47.03
69546;SHT31;56766;52.260;20.746;2023-05-10T06:29:41;14.32;47.64
69546;SHT31;56766;52.260;20.746;2023-05-10T06:32:06;14.38;46.59
69546;SHT31;56766;52.260;20.746;2023-05-10T06:34:32;14.40;47.00
69546;SHT31;56766;52.260;20.746;2023-05-10T06:36:58;14.49;46.59
69546;SHT31;56766;52.260;20.746;2023-05-10T06:39:25;14.54;45.73
69546;SHT31;56766;52.260;20.746;2023-05-10T06:41:50;14.57;45.91
69546;SHT31;56766;52.260;20.746;2023-05-10T06:44:16;14.60;45.85
69546;SHT31;56766;52.260;20.746;2023-05-10T06:46:42;14.64;45.79
69546;SHT31;56766;52.260;20.746;2023-05-10T06:49:08;14.69;45.90
69546;SHT31;56766;52.260;20.746;2023-05-10T06:51:34;14.79;46.24
69546;SHT31;56766;52.260;20.746;2023-05-10T06:54:00;14.87;45.88
69546;SHT31;56766;52.260;20.746;2023-05-10T06:56:26;14.95;45.61
69546;SHT31;56766;52.260;20.746;2023-05-10T06:58:52;14.99;45.01
69546;SHT31;56766;52.260;20.746;2023-05-10T07:01:18;15.07;45.52
69546;SHT31;56766;52.260;20.746;2023-05-10T07:03:44;15.17;45.37
69546;SHT31;56766;52.260;20.746;2023-05-10T07:06:10;15.23;43.98
69546;SHT31;56766;52.260;20.746;2023-05-10T07:08:36;15.27;44.16
69546;SHT31;56766;52.260;20.746;2023-05-10T07:11:07;15.38;44.60
69546;SHT31;56766;52.260;20.746;2023-05-10T07:13:34;15.53;43.71
69546;SHT31;56766;52.260;20.746;2023-05-10T07:16:01;15.64;43.07
69546;SHT31;56766;52.260;20.746;2023-05-10T07:18:27;15.72;41.33
69546;SHT31;56766;52.260;20.746;2023-05-10T07:20:53;15.77;40.76
69546;SHT31;56766;52.260;20.746;2023-05-10T07:23:19;15.79;40.98
69546;SHT31;56766;52.260;20.746;2023-05-10T07:25:46;15.90;41.54
69546;SHT31;56766;52.260;20.746;2023-05-10T07:28:14;16.04;40.78
69546;SHT31;56766;52.260;20.746;2023-05-10T07:30:42;16.14;40.08
69546;SHT31;56766;52.260;20.746;2023-05-10T07:33:10;16.18;40.18
69546;SHT31;56766;52.260;20.746;2023-05-10T07:35:37;16.28;38.89
69546;SHT31;56766;52.260;20.746;2023-05-10T07:38:03;16.41;39.07
69546;SHT31;56766;52.260;20.746;2023-05-10T07:40:29;16.59;40.09
69546;SHT31;56766;52.260;20.746;2023-05-10T07:42:55;16.69;37.70
69546;SHT31;56766;52.260;20.746;2023-05-10T07:45:22;16.73;36.69
69546;SHT31;56766;52.260;20.746;2023-05-10T07:47:49;16.78;37.44
69546;SHT31;56766;52.260;20.746;2023-05-10T07:50:15;16.90;36.68
69546;SHT31;56766;52.260;20.746;2023-05-10T07:52:41;17.01;35.71
69546;SHT31;56766;52.260;20.746;2023-05-10T07:55:08;17.07;35.99
69546;SHT31;56766;52.260;20.746;2023-05-10T07:57:34;17.18;35.52
69546;SHT31;56766;52.260;20.746;2023-05-10T08:00:00;17.25;34.92
69546;SHT31;56766;52.260;20.746;2023-05-10T08:02:26;17.28;34.59
69546;SHT31;56766;52.260;20.746;2023-05-10T08:04:52;17.37;35.17
69546;SHT31;56766;52.260;20.746;2023-05-10T08:07:18;17.43;33.89
69546;SHT31;56766;52.260;20.746;2023-05-10T08:09:44;17.48;33.60
69546;SHT31;56766;52.260;20.746;2023-05-10T08:12:10;17.49;33.73
69546;SHT31;56766;52.260;20.746;2023-05-10T08:14:36;17.59;34.21
69546;SHT31;56766;52.260;20.746;2023-05-10T08:17:03;17.68;33.52
69546;SHT31;56766;52.260;20.746;2023-05-10T08:19:29;17.72;32.03
69546;SHT31;56766;52.260;20.746;2023-05-10T08:21:55;17.71;32.28
69546;SHT31;56766;52.260;20.746;2023-05-10T08:24:21;17.72;32.60
69546;SHT31;56766;52.260;20.746;2023-05-10T08:26:48;17.80;33.18
69546;SHT31;56766;52.260;20.746;2023-05-10T08:29:14;17.88;32.97
69546;SHT31;56766;52.260;20.746;2023-05-10T08:31:41;17.98;33.41
69546;SHT31;56766;52.260;20.746;2023-05-10T08:34:07;18.12;34.00
69546;SHT31;56766;52.260;20.746;2023-05-10T08:36:33;18.26;33.39
69546;SHT31;56766;52.260;20.746;2023-05-10T08:38:59;18.33;33.23
69546;SHT31;56766;52.260;20.746;2023-05-10T08:41:26;18.38;33.17
69546;SHT31;56766;52.260;20.746;2023-05-10T08:43:53;18.46;33.27
69546;SHT31;56766;52.260;20.746;2023-05-10T08:46:22;18.51;32.79
69546;SHT31;56766;52.260;20.746;2023-05-10T08:48:50;18.52;32.35
69546;SHT31;56766;52.260;20.746;2023-05-10T08:51:20;18.61;33.22
69546;SHT31;56766;52.260;20.746;2023-05-10T08:53:49;18.72;32.57
69546;SHT31;56766;52.260;20.746;2023-05-10T08:56:16;18.84;33.64
69546;SHT31;56766;52.260;20.746;2023-05-10T08:58:43;18.97;32.59
69546;SHT31;56766;52.260;20.746;2023-05-10T09:01:10;19.07;33.57
69546;SHT31;56766;52.260;20.746;2023-05-10T09:03:38;19.24;32.89
69546;SHT31;56766;52.260;20.746;2023-05-10T09:06:05;19.28;32.25
69546;SHT31;56766;52.260;20.746;2023-05-10T09:08:32;19.32;32.54
69546;SHT31;56766;52.260;20.746;2023-05-10T09:11:00;19.34;32.57
69546;SHT31;56766;52.260;20.746;2023-05-10T09:13:28;19.38;32.62
69546;SHT31;56766;52.260;20.746;2023-05-10T09:15:54;19.45;32.14
69546;SHT31;56766;52.260;20.746;2023-05-10T09:18:20;19.46;31.39
69546;SHT31;56766;52.260;20.746;2023-05-10T09:20:46;19.49;31.51
69546;SHT31;56766;52.260;20.746;2023-05-10T09:23:12;19.52;31.63
69546;SHT31;56766;52.260;20.746;2023-05-10T09:25:38;19.61;32.26
69546;SHT31;56766;52.260;20.746;2023-05-10T09:28:07;19.76;32.47
69546;SHT31;56766;52.260;20.746;2023-05-10T09:30:37;19.90;32.40
69546;SHT31;56766;52.260;20.746;2023-05-10T09:33:03;20.00;31.42
69546;SHT31;56766;52.260;20.746;2023-05-10T09:35:31;19.98;30.98
69546;SHT31;56766;52.260;20.746;2023-05-10T09:38:04;20.00;31.37
69546;SHT31;56766;52.260;20.746;2023-05-10T09:40:31;20.11;31.78
69546;SHT31;56766;52.260;20.746;2023-05-10T09:42:59;20.23;31.68
69546;SHT31;56766;52.260;20.746;2023-05-10T09:45:32;20.30;32.15
69546;SHT31;56766;52.260;20.746;2023-05-10T09:48:02;20.40;31.67
69546;SHT31;56766;52.260;20.746;2023-05-10T09:50:29;20.41;30.84
69546;SHT31;56766;52.260;20.746;2023-05-10T09:52:56;20.44;32.13
69546;SHT31;56766;52.260;20.746;2023-05-10T09:55:45;20.67;33.02
69546;SHT31;56766;52.260;20.746;2023-05-10T09:58:13;20.84;31.74
69546;SHT31;56766;52.260;20.746;2023-05-10T10:00:44;20.85;31.57
69546;SHT31;56766;52.260;20.746;2023-05-10T10:03:16;20.84;31.57
69546;SHT31;56766;52.260;20.746;2023-05-10T10:05:44;20.83;31.81
69546;SHT31;56766;52.260;20.746;2023-05-10T10:08:13;20.82;31.09
69546;SHT31;56766;52.260;20.746;2023-05-10T10:10:41;20.70;30.89
69546;SHT31;56766;52.260;20.746;2023-05-10T10:13:09;20.62;30.72
69546;SHT31;56766;52.260;20.746;2023-05-10T10:15:36;20.61;31.44
69546;SHT31;56766;52.260;20.746;2023-05-10T10:18:02;20.67;31.06
69546;SHT31;56766;52.260;20.746;2023-05-10T10:20:31;20.66;30.56
69546;SHT31;56766;52.260;20.746;2023-05-10T10:22:57;20.65;30.70
69546;SHT31;56766;52.260;20.746;2023-05-10T10:25:24;20.67;30.58
69546;SHT31;56766;52.260;20.746;2023-05-10T10:30:37;20.68;30.46
69546;SHT31;56766;52.260;20.746;2023-05-10T10:33:29;20.75;30.79
69546;SHT31;56766;52.260;20.746;2023-05-10T10:36:03;20.79;30.49
69546;SHT31;56766;52.260;20.746;2023-05-10T10:52:37;21.46;29.56
69546;SHT31;56766;52.260;20.746;2023-05-10T10:55:10;21.39;30.85
69546;SHT31;56766;52.260;20.746;2023-05-10T11:00:29;21.54;30.16
69546;SHT31;56766;52.260;20.746;2023-05-10T11:03:11;21.47;29.56
69546;SHT31;56766;52.260;20.746;2023-05-10T11:05:58;21.34;29.24
69546;SHT31;56766;52.260;20.746;2023-05-10T11:08:29;21.32;30.55
69546;SHT31;56766;52.260;20.746;2023-05-10T11:13:34;21.37;29.85
69546;SHT31;56766;52.260;20.746;2023-05-10T11:16:24;21.31;29.28
69546;SHT31;56766;52.260;20.746;2023-05-10T11:19:05;21.18;29.03
69546;SHT31;56766;52.260;20.746;2023-05-10T11:21:34;21.20;29.04
69546;SHT31;56766;52.260;20.746;2023-05-10T11:24:17;21.23;30.03
69546;SHT31;56766;52.260;20.746;2023-05-10T11:26:45;21.35;30.57
69546;SHT31;56766;52.260;20.746;2023-05-10T11:29:15;21.42;30.09
69546;SHT31;56766;52.260;20.746;2023-05-10T11:31:43;21.46;30.74
69546;SHT31;56766;52.260;20.746;2023-05-10T11:34:10;21.56;30.95
69546;SHT31;56766;52.260;20.746;2023-05-10T11:36:36;21.58;30.39
69546;SHT31;56766;52.260;20.746;2023-05-10T11:39:04;21.50;30.46
69546;SHT31;56766;52.260;20.746;2023-05-10T11:41:31;21.50;30.79
69546;SHT31;56766;52.260;20.746;2023-05-10T11:43:58;21.55;30.94
69546;SHT31;56766;52.260;20.746;2023-05-10T11:46:27;21.51;30.28
69546;SHT31;56766;52.260;20.746;2023-05-10T11:48:57;21.43;30.65
69546;SHT31;56766;52.260;20.746;2023-05-10T11:51:33;21.47;31.26
69546;SHT31;56766;52.260;20.746;2023-05-10T11:54:07;21.52;31.01
69546;SHT31;56766;52.260;20.746;2023-05-10T11:56:35;21.54;30.80
69546;SHT31;56766;52.260;20.746;2023-05-10T11:59:03;21.58;30.84
69546;SHT31;56766;52.260;20.746;2023-05-10T12:01:30;21.62;30.33
69546;SHT31;56766;52.260;20.746;2023-05-10T12:03:57;21.62;30.01
69546;SHT31;56766;52.260;20.746;2023-05-10T12:06:32;21.56;30.18
69546;SHT31;56766;52.260;20.746;2023-05-10T12:09:07;21.48;30.46
69546;SHT31;56766;52.260;20.746;2023-05-10T12:11:38;21.50;30.68
69546;SHT31;56766;52.260;20.746;2023-05-10T12:14:06;21.43;30.43
69546;SHT31;56766;52.260;20.746;2023-05-10T12:16:33;21.34;30.68
69546;SHT31;56766;52.260;20.746;2023-05-10T12:19:00;21.33;30.56
69546;SHT31;56766;52.260;20.746;2023-05-10T12:21:28;21.32;30.91
69546;SHT31;56766;52.260;20.746;2023-05-10T12:24:02;21.25;30.17
69546;SHT31;56766;52.260;20.746;2023-05-10T12:26:29;21.14;29.91
69546;SHT31;56766;52.260;20.746;2023-05-10T12:29:15;21.09;30.22
69546;SHT31;56766;52.260;20.746;2023-05-10T12:31:59;21.16;31.11
69546;SHT31;56766;52.260;20.746;2023-05-10T12:34:35;21.23;31.00
69546;SHT31;56766;52.260;20.746;2023-05-10T12:37:02;21.25;30.93
69546;SHT31;56766;52.260;20.746;2023-05-10T12:39:39;21.22;30.41
69546;SHT31;56766;52.260;20.746;2023-05-10T12:42:06;21.13;29.82
69546;SHT31;56766;52.260;20.746;2023-05-10T12:44:32;21.02;30.37
69546;SHT31;56766;52.260;20.746;2023-05-10T12:46:58;21.03;31.15
69546;SHT31;56766;52.260;20.746;2023-05-10T12:49:24;21.10;31.14
69546;SHT31;56766;52.260;20.746;2023-05-10T12:51:50;21.11;30.97
69546;SHT31;56766;52.260;20.746;2023-05-10T12:54:16;21.05;30.41
69546;SHT31;56766;52.260;20.746;2023-05-10T12:56:42;20.95;31.00
69546;SHT31;56766;52.260;20.746;2023-05-10T12:59:08;20.99;30.89
69546;SHT31;56766;52.260;20.746;2023-05-10T13:01:34;21.00;31.65
69546;SHT31;56766;52.260;20.746;2023-05-10T13:04:00;21.06;31.76
69546;SHT31;56766;52.260;20.746;2023-05-10T13:06:26;21.03;30.80
69546;SHT31;56766;52.260;20.746;2023-05-10T13:08:52;20.93;30.98
69546;SHT31;56766;52.260;20.746;2023-05-10T13:11:18;20.87;31.10
69546;SHT31;56766;52.260;20.746;2023-05-10T13:13:45;20.78;30.56
69546;SHT31;56766;52.260;20.746;2023-05-10T13:16:11;20.71;31.14
69546;SHT31;56766;52.260;20.746;2023-05-10T13:18:37;20.65;30.63
69546;SHT31;56766;52.260;20.746;2023-05-10T13:21:03;20.64;31.44
69546;SHT31;56766;52.260;20.746;2023-05-10T13:23:31;20.70;31.21
69546;SHT31;56766;52.260;20.746;2023-05-10T13:25:57;20.67;30.94
69546;SHT31;56766;52.260;20.746;2023-05-10T13:28:23;20.60;31.43
69546;SHT31;56766;52.260;20.746;2023-05-10T13:30:49;20.55;30.88
69546;SHT31;56766;52.260;20.746;2023-05-10T13:33:15;20.44;31.09
69546;SHT31;56766;52.260;20.746;2023-05-10T13:35:41;20.38;31.16
69546;SHT31;56766;52.260;20.746;2023-05-10T13:38:07;20.35;32.04
69546;SHT31;56766;52.260;20.746;2023-05-10T13:40:33;20.37;31.79
69546;SHT31;56766;52.260;20.746;2023-05-10T13:42:59;20.36;31.71
69546;SHT31;56766;52.260;20.746;2023-05-10T13:45:25;20.31;31.30
69546;SHT31;56766;52.260;20.746;2023-05-10T13:47:51;20.21;30.82
69546;SHT31;56766;52.260;20.746;2023-05-10T13:50:17;20.09;31.55
69546;SHT31;56766;52.260;20.746;2023-05-10T13:52:44;20.00;31.40
69546;SHT31;56766;52.260;20.746;2023-05-10T13:55:10;19.88;31.08
69546;SHT31;56766;52.260;20.746;2023-05-10T13:57:38;19.77;30.63
69546;SHT31;56766;52.260;20.746;2023-05-10T14:00:05;19.65;30.58
69546;SHT31;56766;52.260;20.746;2023-05-10T14:02:32;19.59;30.97
69546;SHT31;56766;52.260;20.746;2023-05-10T14:04:58;19.57;31.98
69546;SHT31;56766;52.260;20.746;2023-05-10T14:07:24;19.62;32.34
69546;SHT31;56766;52.260;20.746;2023-05-10T14:09:51;19.64;31.86
69546;SHT31;56766;52.260;20.746;2023-05-10T14:12:17;19.59;31.86
69546;SHT31;56766;52.260;20.746;2023-05-10T14:14:44;19.54;31.47
69546;SHT31;56766;52.260;20.746;2023-05-10T14:17:11;19.51;31.46
69546;SHT31;56766;52.260;20.746;2023-05-10T14:19:37;19.58;31.69
69546;SHT31;56766;52.260;20.746;2023-05-10T14:22:03;19.67;32.01
69546;SHT31;56766;52.260;20.746;2023-05-10T14:24:29;19.67;31.20
69546;SHT31;56766;52.260;20.746;2023-05-10T14:26:55;19.63;30.83
69546;SHT31;56766;52.260;20.746;2023-05-10T14:29:21;19.65;31.80
69546;SHT31;56766;52.260;20.746;2023-05-10T14:31:48;19.61;32.04
69546;SHT31;56766;52.260;20.746;2023-05-10T14:34:14;19.59;32.36
69546;SHT31;56766;52.260;20.746;2023-05-10T14:36:40;19.57;32.33
69546;SHT31;56766;52.260;20.746;2023-05-10T14:39:06;19.60;32.89
69546;SHT31;56766;52.260;20.746;2023-05-10T14:41:32;19.58;32.15
69546;SHT31;56766;52.260;20.746;2023-05-10T14:43:58;19.52;31.91
69546;SHT31;56766;52.260;20.746;2023-05-10T14:46:24;19.49;31.97
69546;SHT31;56766;52.260;20.746;2023-05-10T14:48:50;19.48;32.04
69546;SHT31;56766;52.260;20.746;2023-05-10T14:51:17;19.47;32.02
69546;SHT31;56766;52.260;20.746;2023-05-10T14:53:44;19.45;31.98
69546;SHT31;56766;52.260;20.746;2023-05-10T14:56:10;19.41;31.87
69546;SHT31;56766;52.260;20.746;2023-05-10T14:58:36;19.40;31.54
69546;SHT31;56766;52.260;20.746;2023-05-10T15:01:03;19.40;31.76
69546;SHT31;56766;52.260;20.746;2023-05-10T15:03:30;19.43;30.99
69546;SHT31;56766;52.260;20.746;2023-05-10T15:05:56;19.46;30.89
69546;SHT31;56766;52.260;20.746;2023-05-10T15:08:24;19.42;31.30
69546;SHT31;56766;52.260;20.746;2023-05-10T15:10:51;19.36;32.09
69546;SHT31;56766;52.260;20.746;2023-05-10T15:13:18;19.27;31.78
69546;SHT31;56766;52.260;20.746;2023-05-10T15:15:44;19.17;31.86
69546;SHT31;56766;52.260;20.746;2023-05-10T15:18:10;19.11;32.19
69546;SHT31;56766;52.260;20.746;2023-05-10T15:20:36;19.09;31.16
69546;SHT31;56766;52.260;20.746;2023-05-10T15:23:02;19.06;31.12
69546;SHT31;56766;52.260;20.746;2023-05-10T15:25:28;19.05;31.24
69546;SHT31;56766;52.260;20.746;2023-05-10T15:27:54;19.06;31.75
69546;SHT31;56766;52.260;20.746;2023-05-10T15:30:20;19.08;31.28
69546;SHT31;56766;52.260;20.746;2023-05-10T15:32:47;19.13;31.42
69546;SHT31;56766;52.260;20.746;2023-05-10T15:35:13;19.18;31.56
69546;SHT31;56766;52.260;20.746;2023-05-10T15:37:40;19.13;31.30
69546;SHT31;56766;52.260;20.746;2023-05-10T15:40:06;18.99;31.52
69546;SHT31;56766;52.260;20.746;2023-05-10T15:42:33;18.88;31.37
69546;SHT31;56766;52.260;20.746;2023-05-10T15:44:59;18.77;32.00
69546;SHT31;56766;52.260;20.746;2023-05-10T15:47:26;18.62;32.96
69546;SHT31;56766;52.260;20.746;2023-05-10T15:49:53;18.40;32.71
69546;SHT31;56766;52.260;20.746;2023-05-10T15:52:20;18.22;32.48
69546;SHT31;56766;52.260;20.746;2023-05-10T15:54:46;18.08;32.98
69546;SHT31;56766;52.260;20.746;2023-05-10T15:57:12;17.96;33.25
69546;SHT31;56766;52.260;20.746;2023-05-10T15:59:38;17.86;33.27
69546;SHT31;56766;52.260;20.746;2023-05-10T16:02:06;17.78;33.71